createdAt,value
2018-11-21T00:00:22.850Z,23.57
2018-11-21T00:03:11.638Z,23.27
2018-11-21T00:06:00.811Z,25.33
2018-11-21T00:08:49.618Z,26.20
2018-11-21T00:11:38.389Z,21.20
2018-11-21T00:14:27.174Z,25.47
2018-11-21T00:17:15.969Z,21.20
2018-11-21T00:20:05.549Z,23.60
2018-11-21T00:22:54.362Z,24.20
2018-11-21T00:25:43.167Z,24.07
2018-11-21T00:28:31.966Z,22.32
2018-11-21T00:31:20.748Z,25.67
2018-11-21T00:34:09.552Z,23.57
2018-11-21T00:36:58.322Z,22.10
2018-11-21T00:39:47.136Z,23.13
2018-11-21T00:42:35.922Z,24.05
2018-11-21T00:45:24.703Z,25.43
2018-11-21T00:48:13.503Z,23.90
2018-11-21T00:51:02.555Z,23.40
2018-11-21T00:53:51.358Z,23.47
2018-11-21T00:56:40.170Z,23.73
2018-11-21T00:59:28.972Z,23.80
2018-11-21T01:02:17.767Z,24.63
2018-11-21T01:05:07.169Z,24.93
2018-11-21T01:07:55.980Z,23.67
2018-11-21T01:11:03.728Z,23.30
2018-11-21T01:13:53.367Z,23.30
2018-11-21T01:16:42.164Z,26.60
2018-11-21T01:19:31.026Z,23.50
2018-11-21T01:22:19.806Z,27.40
2018-11-21T01:25:08.805Z,26.17
2018-11-21T01:27:57.591Z,26.07
2018-11-21T01:30:46.362Z,25.87
2018-11-21T01:33:35.193Z,25.97
2018-11-21T01:36:42.933Z,26.37
2018-11-21T01:39:31.732Z,31.40
2018-11-21T01:42:20.517Z,27.87
2018-11-21T01:45:09.621Z,25.33
2018-11-21T01:47:58.405Z,30.40
2018-11-21T01:50:47.213Z,22.50
2018-11-21T01:53:36.089Z,24.50
2018-11-21T01:56:24.925Z,27.20
2018-11-21T01:59:13.787Z,26.17
2018-11-21T02:02:02.575Z,21.10
2018-11-21T02:04:51.721Z,25.47
2018-11-21T02:07:40.994Z,24.60
2018-11-21T02:10:29.761Z,29.13
2018-11-21T02:13:18.868Z,24.17
2018-11-21T02:16:07.744Z,26.10
2018-11-21T02:18:56.531Z,28.60
2018-11-21T02:21:45.332Z,31.20
2018-11-21T02:24:34.176Z,35.90
2018-11-21T02:27:23.386Z,30.20
2018-11-21T02:30:12.196Z,27.17
2018-11-21T02:33:01.329Z,26.53
2018-11-21T02:35:50.497Z,28.90
2018-11-21T02:38:39.358Z,28.80
2018-11-21T02:41:28.170Z,25.67
2018-11-21T02:44:16.958Z,29.27
2018-11-21T02:47:05.803Z,32.37
2018-11-21T02:49:54.609Z,27.47
2018-11-21T02:52:43.385Z,32.60
2018-11-21T02:55:32.539Z,31.77
2018-11-21T02:58:21.327Z,28.40
2018-11-21T03:01:10.446Z,29.30
2018-11-21T03:03:59.528Z,31.10
2018-11-21T03:06:48.608Z,31.30
2018-11-21T03:09:37.773Z,33.30
2018-11-21T03:12:26.974Z,29.80
2018-11-21T03:15:15.742Z,27.77
2018-11-21T03:18:05.149Z,28.10
2018-11-21T03:20:53.933Z,28.90
2018-11-21T03:23:42.729Z,26.00
2018-11-21T03:26:31.506Z,27.43
2018-11-21T03:29:20.390Z,25.17
2018-11-21T03:32:09.176Z,24.70
2018-11-21T03:34:57.966Z,26.57
2018-11-21T03:37:46.738Z,25.77
2018-11-21T03:40:35.548Z,28.17
2018-11-21T03:43:24.321Z,26.80
2018-11-21T03:46:13.309Z,27.47
2018-11-21T03:49:02.347Z,26.67
2018-11-21T03:51:51.309Z,27.37
2018-11-21T03:54:40.403Z,25.83
2018-11-21T03:57:29.373Z,27.47
2018-11-21T04:00:18.354Z,26.53
2018-11-21T04:03:07.306Z,24.43
2018-11-21T04:05:56.100Z,26.83
2018-11-21T04:08:45.169Z,24.70
2018-11-21T04:11:33.955Z,24.30
2018-11-21T04:14:22.746Z,28.20
2018-11-21T04:17:11.524Z,21.43
2018-11-21T04:20:19.282Z,24.17
2018-11-21T04:23:08.066Z,21.93
2018-11-21T04:25:56.856Z,21.77
2018-11-21T04:28:45.797Z,24.70
2018-11-21T04:31:34.587Z,22.23
2018-11-21T04:34:23.657Z,23.60
2018-11-21T04:37:12.446Z,25.20
2018-11-21T04:40:01.246Z,23.20
2018-11-21T04:42:50.425Z,24.37
2018-11-21T04:45:39.507Z,27.13
2018-11-21T04:48:28.562Z,27.97
2018-11-21T04:51:17.337Z,25.77
2018-11-21T04:54:06.467Z,24.00
2018-11-21T04:56:55.235Z,22.40
2018-11-21T04:59:44.271Z,24.17
2018-11-21T05:02:33.083Z,21.87
2018-11-21T05:05:21.812Z,23.37
2018-11-21T05:08:10.890Z,25.07
2018-11-21T05:10:59.682Z,24.00
2018-11-21T05:13:48.481Z,23.25
2018-11-21T05:16:37.532Z,22.20
2018-11-21T05:19:26.290Z,20.40
2018-11-21T05:22:15.131Z,22.20
2018-11-21T05:25:03.974Z,22.17
2018-11-21T05:27:53.123Z,23.27
2018-11-21T05:30:42.199Z,23.30
2018-11-21T05:33:31.005Z,24.10
2018-11-21T05:36:19.775Z,20.93
2018-11-21T05:39:10.473Z,22.10
2018-11-21T05:41:59.268Z,21.50
2018-11-21T05:44:48.026Z,22.67
2018-11-21T05:47:36.823Z,23.40
2018-11-21T05:50:25.908Z,20.97
2018-11-21T05:53:15.026Z,23.30
2018-11-21T05:56:03.793Z,24.30
2018-11-21T05:58:52.583Z,23.15
2018-11-21T06:01:41.338Z,23.50
2018-11-21T06:04:30.125Z,24.13
2018-11-21T06:07:19.211Z,21.77
2018-11-21T06:10:27.385Z,23.83
2018-11-21T06:13:16.173Z,23.53
2018-11-21T06:16:05.339Z,26.23
2018-11-21T06:18:54.173Z,21.63
2018-11-21T06:21:42.939Z,23.87
2018-11-21T06:24:31.733Z,24.80
2018-11-21T06:27:20.522Z,22.50
2018-11-21T06:30:10.928Z,24.27
2018-11-21T06:33:00.054Z,19.50
2018-11-21T06:35:48.856Z,22.20
2018-11-21T06:38:37.957Z,24.00
2018-11-21T06:41:26.757Z,21.60
2018-11-21T06:44:15.852Z,23.07
2018-11-21T06:47:04.651Z,21.40
2018-11-21T06:49:53.439Z,24.70
2018-11-21T06:52:42.550Z,24.30
2018-11-21T06:55:31.329Z,24.50
2018-11-21T06:58:20.172Z,22.97
2018-11-21T07:01:08.969Z,22.53
2018-11-21T07:03:57.753Z,22.07
2018-11-21T07:06:46.512Z,20.90
2018-11-21T07:09:35.337Z,22.27
2018-11-21T07:12:24.542Z,24.77
2018-11-21T07:15:13.331Z,25.27
2018-11-21T07:18:02.108Z,22.90
2018-11-21T07:20:50.904Z,24.47
2018-11-21T07:23:39.676Z,24.40
2018-11-21T07:26:28.823Z,22.87
2018-11-21T07:29:17.887Z,20.60
2018-11-21T07:32:06.767Z,22.90
2018-11-21T07:34:55.793Z,21.47
2018-11-21T07:37:44.859Z,21.90
2018-11-21T07:40:33.948Z,21.03
2018-11-21T07:43:22.736Z,20.47
2018-11-21T07:46:11.788Z,19.37
2018-11-21T07:49:00.802Z,20.67
2018-11-21T07:51:49.821Z,19.67
2018-11-21T07:54:38.873Z,19.83
2018-11-21T07:58:06.098Z,20.93
2018-11-21T08:01:33.341Z,18.70
2018-11-21T08:04:41.273Z,22.20
2018-11-21T08:07:49.041Z,19.80
2018-11-21T08:10:56.836Z,20.77
2018-11-21T08:13:55.257Z,21.00
2018-11-21T08:17:03.019Z,20.43
2018-11-21T08:20:10.815Z,24.93
2018-11-21T08:23:18.880Z,20.97
2018-11-21T08:26:26.616Z,21.57
2018-11-21T08:29:08.427Z,18.87
2018-11-21T08:31:57.195Z,23.10
2018-11-21T08:34:46.354Z,22.20
2018-11-21T08:37:35.124Z,21.50
2018-11-21T08:40:24.290Z,20.57
2018-11-21T08:43:13.079Z,19.10
2018-11-21T08:46:01.884Z,21.83
2018-11-21T08:48:50.661Z,22.60
2018-11-21T08:51:39.424Z,18.70
2018-11-21T08:54:28.223Z,23.20
2018-11-21T08:57:16.979Z,21.57
2018-11-21T09:00:07.202Z,17.43
2018-11-21T09:02:56.026Z,22.30
2018-11-21T09:05:44.811Z,20.63
2018-11-21T09:08:33.570Z,20.13
2018-11-21T09:11:22.759Z,17.23
2018-11-21T09:14:11.542Z,17.20
2018-11-21T09:17:00.340Z,20.60
2018-11-21T09:19:49.121Z,19.40
2018-11-21T09:22:37.987Z,20.50
2018-11-21T09:25:27.060Z,21.37
2018-11-21T09:28:15.833Z,17.40
2018-11-21T09:31:04.787Z,19.43
2018-11-21T09:33:54.182Z,18.47
2018-11-21T09:36:42.940Z,18.80
2018-11-21T09:39:31.736Z,18.07
2018-11-21T09:42:20.738Z,17.10
2018-11-21T09:45:11.468Z,20.07
2018-11-21T09:48:00.239Z,18.70
2018-11-21T09:50:49.057Z,19.37
2018-11-21T09:53:37.841Z,21.37
2018-11-21T09:56:26.633Z,21.23
2018-11-21T09:59:15.414Z,17.10
2018-11-21T10:02:42.913Z,18.53
2018-11-21T10:05:31.676Z,18.60
2018-11-21T10:08:44.180Z,18.87
2018-11-21T10:11:33.831Z,17.40
2018-11-21T10:14:22.625Z,19.37
2018-11-21T10:17:11.435Z,20.40
2018-11-21T10:20:00.216Z,16.53
2018-11-21T10:22:49.301Z,19.73
2018-11-21T10:25:38.056Z,18.80
2018-11-21T10:28:26.871Z,19.60
2018-11-21T10:31:16.405Z,18.03
2018-11-21T10:34:05.241Z,18.83
2018-11-21T10:36:54.083Z,20.70
2018-11-21T10:39:42.936Z,17.47
2018-11-21T10:42:31.727Z,19.00
2018-11-21T10:45:20.507Z,20.13
2018-11-21T10:48:09.610Z,18.77
2018-11-21T10:50:58.410Z,15.27
2018-11-21T10:53:47.203Z,16.37
2018-11-21T10:56:36.287Z,15.63
2018-11-21T10:59:25.124Z,16.80
2018-11-21T11:02:33.182Z,15.20
2018-11-21T11:05:41.029Z,16.37
2018-11-21T11:08:48.797Z,15.07
2018-11-21T11:11:56.578Z,15.70
2018-11-21T11:15:04.336Z,16.00
2018-11-21T11:18:05.345Z,15.80
2018-11-21T11:21:13.096Z,18.20
2018-11-21T11:24:20.855Z,16.10
2018-11-21T11:27:28.612Z,18.00
2018-11-21T11:30:36.660Z,20.07
2018-11-21T11:33:44.394Z,19.70
2018-11-21T11:36:52.159Z,20.07
2018-11-21T11:39:59.920Z,18.33
2018-11-21T11:43:07.683Z,18.17
2018-11-21T11:46:15.456Z,19.07
2018-11-21T11:49:23.245Z,17.40
2018-11-21T11:52:31.066Z,17.87
2018-11-21T11:55:38.831Z,19.23
2018-11-21T11:58:46.573Z,18.73
2018-11-21T12:01:54.327Z,17.53
2018-11-21T12:05:02.071Z,17.10
2018-11-21T12:08:09.825Z,18.97
2018-11-21T12:11:17.577Z,18.13
2018-11-21T12:14:25.998Z,16.32
2018-11-21T12:17:33.793Z,20.60
2018-11-21T12:20:41.576Z,18.07
2018-11-21T12:23:49.346Z,16.63
2018-11-21T12:26:57.120Z,21.00
2018-11-21T12:30:04.911Z,20.90
2018-11-21T12:33:12.679Z,25.07
2018-11-21T12:36:20.448Z,21.00
2018-11-21T12:39:29.017Z,20.20
2018-11-21T12:42:37.142Z,20.83
2018-11-21T12:45:44.893Z,19.07
2018-11-21T12:48:52.649Z,18.70
2018-11-21T12:52:00.413Z,16.50
2018-11-21T12:55:08.188Z,20.77
2018-11-21T12:58:06.633Z,19.20
2018-11-21T13:01:14.404Z,25.10
2018-11-21T13:04:22.138Z,29.70
2018-11-21T13:07:29.945Z,17.07
2018-11-21T13:10:37.678Z,20.17
2018-11-21T13:13:45.437Z,19.20
2018-11-21T13:16:53.184Z,16.80
2018-11-21T13:20:00.984Z,19.03
2018-11-21T13:23:08.727Z,18.80
2018-11-21T13:26:16.507Z,17.20
2018-11-21T13:29:24.579Z,21.17
2018-11-21T13:32:32.340Z,16.17
2018-11-21T13:35:40.108Z,17.50
2018-11-21T13:38:47.976Z,17.03
2018-11-21T13:41:55.715Z,17.63
2018-11-21T13:45:03.476Z,18.57
2018-11-21T13:48:11.234Z,17.80
2018-11-21T13:51:18.971Z,18.97
2018-11-21T13:54:26.789Z,17.30
2018-11-21T13:57:15.552Z,15.93
2018-11-21T14:00:04.788Z,17.90
2018-11-21T14:02:53.572Z,18.30
2018-11-21T14:05:42.552Z,19.70
2018-11-21T14:08:31.688Z,14.20
2018-11-21T14:11:20.491Z,19.90
2018-11-21T14:14:10.051Z,16.80
2018-11-21T14:16:58.826Z,18.70
2018-11-21T14:19:47.580Z,17.47
2018-11-21T14:22:36.353Z,22.20
2018-11-21T14:25:25.135Z,17.13
2018-11-21T14:28:14.273Z,18.30
2018-11-21T14:31:03.053Z,17.40
2018-11-21T14:33:51.857Z,18.10
2018-11-21T14:36:40.926Z,19.17
2018-11-21T14:39:30.056Z,18.10
2018-11-21T14:42:18.833Z,17.80
2018-11-21T14:45:10.023Z,19.60
2018-11-21T14:47:58.802Z,41.80
2018-11-21T14:50:47.587Z,24.03
2018-11-21T14:53:36.754Z,18.73
2018-11-21T14:56:29.424Z,19.67
2018-11-21T14:59:14.309Z,19.90
2018-11-21T15:02:03.107Z,20.33
2018-11-21T15:04:51.905Z,19.27
2018-11-21T15:07:41.479Z,17.80
2018-11-21T15:10:30.314Z,19.17
2018-11-21T15:13:19.080Z,19.27
2018-11-21T15:16:07.883Z,20.10
2018-11-21T15:18:56.677Z,21.67
2018-11-21T15:21:45.871Z,19.63
2018-11-21T15:24:34.639Z,24.07
2018-11-21T15:27:23.437Z,21.97
2018-11-21T15:30:15.055Z,18.57
2018-11-21T15:33:04.156Z,18.10
2018-11-21T15:35:53.311Z,20.40
2018-11-21T15:38:42.076Z,22.73
2018-11-21T15:41:30.918Z,20.20
2018-11-21T15:44:19.697Z,18.30
2018-11-21T15:47:08.524Z,18.53
2018-11-21T15:49:57.304Z,19.20
2018-11-21T15:52:52.757Z,20.27
2018-11-21T15:55:34.904Z,19.90
2018-11-21T15:58:23.702Z,20.00
2018-11-21T16:01:12.482Z,22.83
2018-11-21T16:04:01.287Z,19.73
2018-11-21T16:06:50.076Z,19.80
2018-11-21T16:09:39.271Z,21.13
2018-11-21T16:12:28.046Z,22.30
2018-11-21T16:15:19.688Z,22.90
2018-11-21T16:18:08.469Z,26.95
2018-11-21T16:20:57.272Z,25.10
2018-11-21T16:23:46.392Z,24.07
2018-11-21T16:26:35.227Z,23.57
2018-11-21T16:29:24.058Z,27.00
2018-11-21T16:32:13.250Z,28.20
2018-11-21T16:35:02.548Z,26.67
2018-11-21T16:38:10.194Z,28.60
2018-11-21T16:40:59.408Z,28.30
2018-11-21T16:43:48.241Z,26.80
2018-11-21T16:46:37.045Z,28.13
2018-11-21T16:49:26.182Z,26.60
2018-11-21T16:52:15.297Z,26.47
2018-11-21T16:55:04.092Z,26.77
2018-11-21T16:57:53.668Z,27.43
2018-11-21T17:00:42.464Z,26.67
2018-11-21T17:03:31.254Z,27.30
2018-11-21T17:06:20.057Z,38.23
2018-11-21T17:09:10.850Z,27.62
2018-11-21T17:11:59.663Z,24.57
2018-11-21T17:14:48.446Z,28.90
2018-11-21T17:17:37.635Z,26.17
2018-11-21T17:20:28.322Z,29.30
2018-11-21T17:23:17.104Z,28.07
2018-11-21T17:26:06.125Z,29.20
2018-11-21T17:28:54.923Z,26.93
2018-11-21T17:31:43.993Z,28.90
2018-11-21T17:34:33.120Z,33.07
2018-11-21T17:37:22.274Z,33.80
2018-11-21T17:40:32.351Z,33.97
2018-11-21T17:43:21.139Z,28.27
2018-11-21T17:46:10.607Z,28.50
2018-11-21T17:48:52.305Z,29.63
2018-11-21T17:51:41.063Z,30.70
2018-11-21T17:54:30.174Z,32.17
2018-11-21T17:57:19.298Z,29.37
2018-11-21T18:00:31.001Z,29.73
2018-11-21T18:03:19.785Z,34.03
2018-11-21T18:06:08.576Z,32.73
2018-11-21T18:08:57.374Z,35.10
2018-11-21T18:11:46.470Z,28.57
2018-11-21T18:14:35.271Z,39.90
2018-11-21T18:17:24.033Z,33.53
2018-11-21T18:20:13.611Z,30.90
2018-11-21T18:23:02.381Z,39.27
2018-11-21T18:25:51.208Z,31.73
2018-11-21T18:28:40.004Z,39.67
2018-11-21T18:31:28.824Z,28.40
2018-11-21T18:34:17.605Z,34.07
2018-11-21T18:37:06.658Z,29.97
2018-11-21T18:39:55.491Z,32.37
2018-11-21T18:42:44.379Z,32.83
2018-11-21T18:45:35.870Z,36.57
2018-11-21T18:48:25.002Z,32.30
2018-11-21T18:51:13.802Z,29.40
2018-11-21T18:54:02.603Z,28.17
2018-11-21T18:57:13.761Z,31.90
2018-11-21T19:00:25.617Z,27.50
2018-11-21T19:03:14.404Z,28.75
2018-11-21T19:06:03.197Z,29.97
2018-11-21T19:08:52.006Z,29.50
2018-11-21T19:11:41.106Z,29.53
2018-11-21T19:14:29.967Z,30.90
2018-11-21T19:17:18.742Z,30.57
2018-11-21T19:20:10.893Z,29.67
2018-11-21T19:23:00.060Z,34.07
2018-11-21T19:25:48.869Z,31.90
2018-11-21T19:28:37.999Z,31.27
2018-11-21T19:31:29.741Z,27.10
2018-11-21T19:34:16.072Z,27.87
2018-11-21T19:37:05.592Z,30.43
2018-11-21T19:39:54.533Z,30.53
2018-11-21T19:43:02.358Z,29.65
2018-11-21T19:46:10.207Z,31.17
2018-11-21T19:48:59.305Z,28.23
2018-11-21T19:51:48.409Z,31.57
2018-11-21T19:54:38.616Z,27.07
2018-11-21T19:57:46.921Z,30.47
2018-11-21T20:00:55.434Z,30.53
2018-11-21T20:03:45.911Z,28.03
2018-11-21T20:06:35.784Z,27.83
2018-11-21T20:09:44.704Z,26.90
2018-11-21T20:12:39.713Z,26.07
2018-11-21T20:15:24.424Z,29.07
2018-11-21T20:18:14.135Z,31.57
2018-11-21T20:21:03.140Z,27.33
2018-11-21T20:23:52.741Z,28.77
2018-11-21T20:26:41.643Z,26.97
2018-11-21T20:29:31.294Z,27.77
2018-11-21T20:32:20.841Z,28.43
2018-11-21T20:35:11.571Z,27.90
2018-11-21T20:38:00.538Z,28.83
2018-11-21T20:40:49.507Z,29.47
2018-11-21T20:43:39.146Z,28.33
2018-11-21T20:46:29.548Z,31.53
2018-11-21T20:49:38.301Z,27.97
2018-11-21T20:52:27.754Z,28.43
2018-11-21T20:55:18.006Z,27.53
2018-11-21T20:58:07.056Z,27.57
2018-11-21T21:00:56.042Z,32.37
2018-11-21T21:03:44.854Z,27.33
2018-11-21T21:06:52.698Z,26.93
2018-11-21T21:10:00.531Z,30.17
2018-11-21T21:12:49.337Z,26.00
2018-11-21T21:15:38.205Z,26.67
2018-11-21T21:18:27.067Z,24.40
2018-11-21T21:21:15.999Z,25.70
2018-11-21T21:24:23.828Z,27.17
2018-11-21T21:27:12.690Z,26.93
2018-11-21T21:30:01.478Z,23.30
2018-11-21T21:32:50.374Z,26.87
2018-11-21T21:35:39.177Z,24.70
2018-11-21T21:38:27.983Z,26.50
2018-11-21T21:41:16.748Z,28.13
2018-11-21T21:44:05.677Z,25.63
2018-11-21T21:46:54.479Z,28.70
2018-11-21T21:49:43.264Z,26.50
2018-11-21T21:52:32.643Z,28.27
2018-11-21T21:55:22.571Z,29.57
2018-11-21T21:58:11.334Z,27.00
2018-11-21T22:01:00.145Z,27.27
2018-11-21T22:03:48.930Z,25.47
2018-11-21T22:06:56.833Z,27.20
2018-11-21T22:12:35.225Z,28.77
2018-11-21T22:15:43.062Z,25.93
2018-11-21T22:18:50.830Z,26.10
2018-11-21T22:21:39.622Z,29.47
2018-11-21T22:24:28.421Z,30.67
2018-11-21T22:27:17.480Z,32.90
2018-11-21T22:30:08.224Z,29.40
2018-11-21T22:32:58.051Z,27.70
2018-11-21T22:35:47.180Z,28.30
2018-11-21T22:38:36.346Z,25.60
2018-11-21T22:41:25.123Z,25.90
2018-11-21T22:44:13.903Z,24.07
2018-11-21T22:47:03.044Z,25.73
2018-11-21T22:49:51.831Z,25.47
2018-11-21T22:52:40.703Z,24.50
2018-11-21T22:55:29.490Z,26.20
2018-11-21T22:58:18.319Z,24.97
2018-11-21T23:01:07.089Z,24.50
2018-11-21T23:03:56.219Z,27.10
2018-11-21T23:06:45.320Z,25.77
2018-11-21T23:09:34.448Z,26.57
2018-11-21T23:12:23.218Z,23.43
2018-11-21T23:15:12.777Z,26.77
2018-11-21T23:18:01.599Z,26.30
2018-11-21T23:20:50.392Z,26.50
2018-11-21T23:23:39.167Z,24.70
2018-11-21T23:26:27.967Z,28.27
2018-11-21T23:29:16.753Z,28.65
2018-11-21T23:32:05.763Z,24.90
2018-11-21T23:34:54.560Z,23.90
2018-11-21T23:37:43.346Z,26.37
2018-11-21T23:40:32.119Z,27.90
2018-11-21T23:43:20.980Z,25.60
2018-11-21T23:46:29.024Z,24.30
2018-11-21T23:49:17.832Z,25.25
2018-11-21T23:52:25.593Z,24.20
2018-11-21T23:55:16.667Z,25.07
2018-11-21T23:58:05.615Z,24.87
